sensor_id;sensor_type;location;lat;lon;timestamp;P1;durP1;ratioP1;P2;durP2;ratioP2
70216;SDS011;65567;55.684;37.570;2023-09-30T00:01:01;11.52;;;8.38;;
70216;SDS011;65567;55.684;37.570;2023-09-30T00:03:27;14.85;;;8.27;;
70216;SDS011;65567;55.684;37.570;2023-09-30T00:05:53;11.27;;;8.13;;
70216;SDS011;65567;55.684;37.570;2023-09-30T00:08:19;14.52;;;8.38;;
70216;SDS011;65567;55.684;37.570;2023-09-30T00:10:45;13.32;;;8.88;;
70216;SDS011;65567;55.684;37.570;2023-09-30T00:13:12;13.00;;;8.65;;
70216;SDS011;65567;55.684;37.570;2023-09-30T00:15:38;17.50;;;8.60;;
70216;SDS011;65567;55.684;37.570;2023-09-30T00:18:04;15.77;;;8.50;;
70216;SDS011;65567;55.684;37.570;2023-09-30T00:20:30;12.25;;;8.60;;
70216;SDS011;65567;55.684;37.570;2023-09-30T00:22:56;11.02;;;8.13;;
70216;SDS011;65567;55.684;37.570;2023-09-30T00:25:23;12.82;;;8.48;;
70216;SDS011;65567;55.684;37.570;2023-09-30T00:27:48;16.13;;;8.73;;
70216;SDS011;65567;55.684;37.570;2023-09-30T00:30:15;14.23;;;8.38;;
70216;SDS011;65567;55.684;37.570;2023-09-30T00:32:41;12.98;;;8.27;;
70216;SDS011;65567;55.684;37.570;2023-09-30T00:35:06;13.43;;;8.70;;
70216;SDS011;65567;55.684;37.570;2023-09-30T00:37:39;13.57;;;8.40;;
70216;SDS011;65567;55.684;37.570;2023-09-30T00:40:05;12.13;;;8.70;;
70216;SDS011;65567;55.684;37.570;2023-09-30T00:42:32;14.13;;;9.05;;
70216;SDS011;65567;55.684;37.570;2023-09-30T00:44:58;13.63;;;9.32;;
70216;SDS011;65567;55.684;37.570;2023-09-30T00:47:23;14.60;;;8.65;;
70216;SDS011;65567;55.684;37.570;2023-09-30T00:49:51;12.50;;;8.63;;
70216;SDS011;65567;55.684;37.570;2023-09-30T00:52:18;12.65;;;8.57;;
70216;SDS011;65567;55.684;37.570;2023-09-30T00:54:44;14.90;;;9.00;;
70216;SDS011;65567;55.684;37.570;2023-09-30T00:57:12;13.90;;;8.90;;
70216;SDS011;65567;55.684;37.570;2023-09-30T00:59:38;13.77;;;8.85;;
70216;SDS011;65567;55.684;37.570;2023-09-30T01:02:05;16.85;;;9.13;;
70216;SDS011;65567;55.684;37.570;2023-09-30T01:04:31;13.13;;;9.43;;
70216;SDS011;65567;55.684;37.570;2023-09-30T01:06:58;13.60;;;8.90;;
70216;SDS011;65567;55.684;37.570;2023-09-30T01:09:23;13.98;;;8.88;;
70216;SDS011;65567;55.684;37.570;2023-09-30T01:11:50;16.30;;;8.60;;
70216;SDS011;65567;55.684;37.570;2023-09-30T01:16:59;14.68;;;8.93;;
70216;SDS011;65567;55.684;37.570;2023-09-30T01:19:26;13.43;;;8.68;;
70216;SDS011;65567;55.684;37.570;2023-09-30T01:21:55;14.40;;;9.20;;
70216;SDS011;65567;55.684;37.570;2023-09-30T01:24:29;13.40;;;8.90;;
70216;SDS011;65567;55.684;37.570;2023-09-30T01:26:55;12.95;;;8.57;;
70216;SDS011;65567;55.684;37.570;2023-09-30T01:29:21;15.45;;;9.05;;
70216;SDS011;65567;55.684;37.570;2023-09-30T01:31:47;15.23;;;9.07;;
70216;SDS011;65567;55.684;37.570;2023-09-30T01:34:16;15.18;;;8.98;;
70216;SDS011;65567;55.684;37.570;2023-09-30T01:36:42;13.10;;;8.98;;
70216;SDS011;65567;55.684;37.570;2023-09-30T01:39:09;13.40;;;8.90;;
70216;SDS011;65567;55.684;37.570;2023-09-30T01:41:36;12.55;;;8.55;;
70216;SDS011;65567;55.684;37.570;2023-09-30T01:44:02;14.52;;;9.30;;
70216;SDS011;65567;55.684;37.570;2023-09-30T01:46:28;10.52;;;8.75;;
70216;SDS011;65567;55.684;37.570;2023-09-30T01:48:54;13.25;;;9.18;;
70216;SDS011;65567;55.684;37.570;2023-09-30T01:51:20;11.95;;;9.00;;
70216;SDS011;65567;55.684;37.570;2023-09-30T01:53:47;13.95;;;8.57;;
70216;SDS011;65567;55.684;37.570;2023-09-30T01:56:13;14.93;;;8.85;;
70216;SDS011;65567;55.684;37.570;2023-09-30T01:58:39;15.13;;;9.45;;
70216;SDS011;65567;55.684;37.570;2023-09-30T02:01:04;11.75;;;8.40;;
70216;SDS011;65567;55.684;37.570;2023-09-30T02:03:30;13.80;;;8.68;;
70216;SDS011;65567;55.684;37.570;2023-09-30T02:05:59;17.75;;;8.80;;
70216;SDS011;65567;55.684;37.570;2023-09-30T02:08:25;16.92;;;9.27;;
70216;SDS011;65567;55.684;37.570;2023-09-30T02:10:50;15.52;;;8.70;;
70216;SDS011;65567;55.684;37.570;2023-09-30T02:13:17;13.70;;;8.15;;
70216;SDS011;65567;55.684;37.570;2023-09-30T02:15:43;12.30;;;8.48;;
70216;SDS011;65567;55.684;37.570;2023-09-30T02:18:09;16.02;;;8.85;;
70216;SDS011;65567;55.684;37.570;2023-09-30T02:20:35;15.43;;;8.90;;
70216;SDS011;65567;55.684;37.570;2023-09-30T02:23:05;14.85;;;8.68;;
70216;SDS011;65567;55.684;37.570;2023-09-30T02:25:36;12.63;;;8.55;;
70216;SDS011;65567;55.684;37.570;2023-09-30T02:28:05;13.27;;;9.23;;
70216;SDS011;65567;55.684;37.570;2023-09-30T02:30:31;13.65;;;8.68;;
70216;SDS011;65567;55.684;37.570;2023-09-30T02:32:57;13.18;;;8.80;;
70216;SDS011;65567;55.684;37.570;2023-09-30T02:35:22;13.98;;;8.90;;
70216;SDS011;65567;55.684;37.570;2023-09-30T02:37:48;11.80;;;8.38;;
70216;SDS011;65567;55.684;37.570;2023-09-30T02:40:17;13.20;;;8.80;;
70216;SDS011;65567;55.684;37.570;2023-09-30T02:42:44;13.15;;;8.60;;
70216;SDS011;65567;55.684;37.570;2023-09-30T02:45:10;14.50;;;8.73;;
70216;SDS011;65567;55.684;37.570;2023-09-30T02:47:37;15.27;;;8.55;;
70216;SDS011;65567;55.684;37.570;2023-09-30T02:50:07;15.57;;;9.10;;
70216;SDS011;65567;55.684;37.570;2023-09-30T02:52:33;11.15;;;8.52;;
70216;SDS011;65567;55.684;37.570;2023-09-30T02:54:59;17.05;;;9.55;;
70216;SDS011;65567;55.684;37.570;2023-09-30T02:57:25;13.40;;;8.27;;
70216;SDS011;65567;55.684;37.570;2023-09-30T02:59:53;15.63;;;8.75;;
70216;SDS011;65567;55.684;37.570;2023-09-30T03:02:24;13.52;;;9.65;;
70216;SDS011;65567;55.684;37.570;2023-09-30T03:04:50;11.90;;;9.52;;
70216;SDS011;65567;55.684;37.570;2023-09-30T03:07:17;11.93;;;8.70;;
70216;SDS011;65567;55.684;37.570;2023-09-30T03:09:44;13.20;;;8.77;;
70216;SDS011;65567;55.684;37.570;2023-09-30T03:12:11;12.50;;;8.60;;
70216;SDS011;65567;55.684;37.570;2023-09-30T03:14:37;13.27;;;9.20;;
70216;SDS011;65567;55.684;37.570;2023-09-30T03:17:03;14.85;;;8.65;;
70216;SDS011;65567;55.684;37.570;2023-09-30T03:19:28;14.15;;;9.00;;
70216;SDS011;65567;55.684;37.570;2023-09-30T03:21:54;17.13;;;8.48;;
70216;SDS011;65567;55.684;37.570;2023-09-30T03:24:21;14.98;;;8.43;;
70216;SDS011;65567;55.684;37.570;2023-09-30T03:26:48;16.00;;;9.60;;
70216;SDS011;65567;55.684;37.570;2023-09-30T03:29:14;12.60;;;8.73;;
70216;SDS011;65567;55.684;37.570;2023-09-30T03:31:40;14.80;;;8.77;;
70216;SDS011;65567;55.684;37.570;2023-09-30T03:34:06;13.40;;;8.80;;
70216;SDS011;65567;55.684;37.570;2023-09-30T03:36:32;12.75;;;8.63;;
70216;SDS011;65567;55.684;37.570;2023-09-30T03:38:58;13.80;;;9.13;;
70216;SDS011;65567;55.684;37.570;2023-09-30T03:41:30;14.73;;;8.88;;
70216;SDS011;65567;55.684;37.570;2023-09-30T03:43:56;15.98;;;8.50;;
70216;SDS011;65567;55.684;37.570;2023-09-30T03:46:22;19.67;;;9.25;;
70216;SDS011;65567;55.684;37.570;2023-09-30T03:48:47;13.95;;;8.95;;
70216;SDS011;65567;55.684;37.570;2023-09-30T03:51:13;13.18;;;8.63;;
70216;SDS011;65567;55.684;37.570;2023-09-30T03:53:41;20.83;;;9.18;;
70216;SDS011;65567;55.684;37.570;2023-09-30T03:56:07;15.18;;;8.85;;
70216;SDS011;65567;55.684;37.570;2023-09-30T03:58:37;15.70;;;8.40;;
70216;SDS011;65567;55.684;37.570;2023-09-30T04:01:03;13.98;;;8.82;;
70216;SDS011;65567;55.684;37.570;2023-09-30T04:03:29;12.57;;;8.70;;
70216;SDS011;65567;55.684;37.570;2023-09-30T04:05:58;12.88;;;8.20;;
70216;SDS011;65567;55.684;37.570;2023-09-30T04:08:24;11.38;;;7.90;;
70216;SDS011;65567;55.684;37.570;2023-09-30T04:10:50;15.27;;;8.88;;
70216;SDS011;65567;55.684;37.570;2023-09-30T04:13:16;17.13;;;8.90;;
70216;SDS011;65567;55.684;37.570;2023-09-30T04:15:42;12.85;;;7.80;;
70216;SDS011;65567;55.684;37.570;2023-09-30T04:18:10;11.55;;;8.20;;
70216;SDS011;65567;55.684;37.570;2023-09-30T04:20:36;11.38;;;8.10;;
70216;SDS011;65567;55.684;37.570;2023-09-30T04:23:05;11.05;;;7.38;;
70216;SDS011;65567;55.684;37.570;2023-09-30T04:25:35;13.43;;;8.52;;
70216;SDS011;65567;55.684;37.570;2023-09-30T04:28:01;14.70;;;8.43;;
70216;SDS011;65567;55.684;37.570;2023-09-30T04:30:27;17.45;;;9.93;;
70216;SDS011;65567;55.684;37.570;2023-09-30T04:32:54;15.35;;;8.63;;
70216;SDS011;65567;55.684;37.570;2023-09-30T04:35:22;12.45;;;7.97;;
70216;SDS011;65567;55.684;37.570;2023-09-30T04:37:47;12.02;;;7.63;;
70216;SDS011;65567;55.684;37.570;2023-09-30T04:40:13;9.88;;;6.95;;
70216;SDS011;65567;55.684;37.570;2023-09-30T04:42:45;12.07;;;7.18;;
70216;SDS011;65567;55.684;37.570;2023-09-30T04:45:12;13.05;;;7.75;;
70216;SDS011;65567;55.684;37.570;2023-09-30T04:47:38;11.65;;;7.60;;
70216;SDS011;65567;55.684;37.570;2023-09-30T04:50:07;10.40;;;7.00;;
70216;SDS011;65567;55.684;37.570;2023-09-30T04:52:36;13.68;;;7.45;;
70216;SDS011;65567;55.684;37.570;2023-09-30T04:55:04;14.45;;;7.80;;
70216;SDS011;65567;55.684;37.570;2023-09-30T04:57:30;12.25;;;8.50;;
70216;SDS011;65567;55.684;37.570;2023-09-30T04:59:56;12.45;;;7.75;;
70216;SDS011;65567;55.684;37.570;2023-09-30T05:02:22;15.20;;;7.20;;
70216;SDS011;65567;55.684;37.570;2023-09-30T05:04:49;13.32;;;7.78;;
70216;SDS011;65567;55.684;37.570;2023-09-30T05:07:14;11.40;;;8.23;;
70216;SDS011;65567;55.684;37.570;2023-09-30T05:09:40;11.77;;;8.18;;
70216;SDS011;65567;55.684;37.570;2023-09-30T05:12:06;10.73;;;8.00;;
70216;SDS011;65567;55.684;37.570;2023-09-30T05:14:32;12.88;;;8.40;;
70216;SDS011;65567;55.684;37.570;2023-09-30T05:16:58;10.82;;;7.10;;
70216;SDS011;65567;55.684;37.570;2023-09-30T05:19:24;10.57;;;7.50;;
70216;SDS011;65567;55.684;37.570;2023-09-30T05:21:50;14.25;;;7.55;;
70216;SDS011;65567;55.684;37.570;2023-09-30T05:24:15;9.82;;;7.50;;
70216;SDS011;65567;55.684;37.570;2023-09-30T05:26:44;9.63;;;7.18;;
70216;SDS011;65567;55.684;37.570;2023-09-30T05:29:10;14.00;;;7.60;;
70216;SDS011;65567;55.684;37.570;2023-09-30T05:31:36;11.55;;;8.30;;
70216;SDS011;65567;55.684;37.570;2023-09-30T05:34:02;10.45;;;7.00;;
70216;SDS011;65567;55.684;37.570;2023-09-30T05:36:29;12.45;;;7.07;;
70216;SDS011;65567;55.684;37.570;2023-09-30T05:38:55;10.93;;;6.90;;
70216;SDS011;65567;55.684;37.570;2023-09-30T05:41:22;10.80;;;6.78;;
70216;SDS011;65567;55.684;37.570;2023-09-30T05:43:48;11.13;;;7.30;;
70216;SDS011;65567;55.684;37.570;2023-09-30T05:46:15;11.60;;;7.25;;
70216;SDS011;65567;55.684;37.570;2023-09-30T05:48:41;12.23;;;7.50;;
70216;SDS011;65567;55.684;37.570;2023-09-30T05:51:10;11.50;;;7.22;;
70216;SDS011;65567;55.684;37.570;2023-09-30T05:53:39;9.68;;;7.15;;
70216;SDS011;65567;55.684;37.570;2023-09-30T05:56:06;12.75;;;6.97;;
70216;SDS011;65567;55.684;37.570;2023-09-30T05:58:32;8.98;;;6.70;;
70216;SDS011;65567;55.684;37.570;2023-09-30T06:00:58;13.18;;;7.30;;
70216;SDS011;65567;55.684;37.570;2023-09-30T06:03:25;11.65;;;7.22;;
70216;SDS011;65567;55.684;37.570;2023-09-30T06:05:54;10.73;;;6.63;;
70216;SDS011;65567;55.684;37.570;2023-09-30T06:08:21;12.20;;;6.68;;
70216;SDS011;65567;55.684;37.570;2023-09-30T06:10:47;12.10;;;6.65;;
70216;SDS011;65567;55.684;37.570;2023-09-30T06:13:12;13.00;;;6.43;;
70216;SDS011;65567;55.684;37.570;2023-09-30T06:15:40;8.35;;;6.63;;
70216;SDS011;65567;55.684;37.570;2023-09-30T06:18:07;12.95;;;6.53;;
70216;SDS011;65567;55.684;37.570;2023-09-30T06:20:34;9.65;;;6.40;;
70216;SDS011;65567;55.684;37.570;2023-09-30T06:23:00;10.77;;;7.30;;
70216;SDS011;65567;55.684;37.570;2023-09-30T06:25:26;17.00;;;7.35;;
70216;SDS011;65567;55.684;37.570;2023-09-30T06:27:53;15.15;;;7.57;;
70216;SDS011;65567;55.684;37.570;2023-09-30T06:30:22;11.65;;;7.47;;
70216;SDS011;65567;55.684;37.570;2023-09-30T06:32:55;11.18;;;6.75;;
70216;SDS011;65567;55.684;37.570;2023-09-30T06:35:25;12.57;;;7.43;;
70216;SDS011;65567;55.684;37.570;2023-09-30T06:37:52;10.32;;;6.90;;
70216;SDS011;65567;55.684;37.570;2023-09-30T06:40:18;15.15;;;8.75;;
70216;SDS011;65567;55.684;37.570;2023-09-30T06:42:44;17.02;;;11.00;;
70216;SDS011;65567;55.684;37.570;2023-09-30T06:45:10;9.82;;;7.25;;
70216;SDS011;65567;55.684;37.570;2023-09-30T06:47:39;9.98;;;7.10;;
70216;SDS011;65567;55.684;37.570;2023-09-30T06:50:10;11.55;;;6.88;;
70216;SDS011;65567;55.684;37.570;2023-09-30T06:52:40;10.30;;;6.68;;
70216;SDS011;65567;55.684;37.570;2023-09-30T06:55:07;10.90;;;6.93;;
70216;SDS011;65567;55.684;37.570;2023-09-30T06:57:34;11.02;;;6.60;;
70216;SDS011;65567;55.684;37.570;2023-09-30T07:00:01;16.92;;;7.30;;
70216;SDS011;65567;55.684;37.570;2023-09-30T07:02:34;13.45;;;6.63;;
70216;SDS011;65567;55.684;37.570;2023-09-30T07:05:02;15.95;;;7.32;;
70216;SDS011;65567;55.684;37.570;2023-09-30T07:07:34;10.52;;;6.53;;
70216;SDS011;65567;55.684;37.570;2023-09-30T07:10:00;15.10;;;7.82;;
70216;SDS011;65567;55.684;37.570;2023-09-30T07:12:27;12.85;;;7.60;;
70216;SDS011;65567;55.684;37.570;2023-09-30T07:14:53;11.70;;;7.40;;
70216;SDS011;65567;55.684;37.570;2023-09-30T07:17:19;14.38;;;7.65;;
70216;SDS011;65567;55.684;37.570;2023-09-30T07:19:45;11.30;;;7.25;;
70216;SDS011;65567;55.684;37.570;2023-09-30T07:22:11;14.23;;;7.30;;
70216;SDS011;65567;55.684;37.570;2023-09-30T07:24:36;17.25;;;7.68;;
70216;SDS011;65567;55.684;37.570;2023-09-30T07:27:04;17.25;;;7.55;;
70216;SDS011;65567;55.684;37.570;2023-09-30T07:29:31;9.57;;;5.93;;
70216;SDS011;65567;55.684;37.570;2023-09-30T07:31:58;13.57;;;7.13;;
70216;SDS011;65567;55.684;37.570;2023-09-30T07:34:24;14.63;;;7.15;;
70216;SDS011;65567;55.684;37.570;2023-09-30T07:36:50;15.23;;;6.38;;
70216;SDS011;65567;55.684;37.570;2023-09-30T07:39:16;10.45;;;6.50;;
70216;SDS011;65567;55.684;37.570;2023-09-30T07:41:42;15.80;;;7.25;;
70216;SDS011;65567;55.684;37.570;2023-09-30T07:44:08;13.98;;;7.30;;
70216;SDS011;65567;55.684;37.570;2023-09-30T07:46:35;12.07;;;7.20;;
70216;SDS011;65567;55.684;37.570;2023-09-30T07:49:02;12.68;;;6.97;;
70216;SDS011;65567;55.684;37.570;2023-09-30T07:51:28;13.82;;;6.55;;
70216;SDS011;65567;55.684;37.570;2023-09-30T07:53:55;15.10;;;6.53;;
70216;SDS011;65567;55.684;37.570;2023-09-30T07:56:22;11.05;;;7.18;;
70216;SDS011;65567;55.684;37.570;2023-09-30T07:58:48;13.43;;;7.13;;
70216;SDS011;65567;55.684;37.570;2023-09-30T08:01:14;15.50;;;7.15;;
70216;SDS011;65567;55.684;37.570;2023-09-30T08:03:40;15.82;;;7.07;;
70216;SDS011;65567;55.684;37.570;2023-09-30T08:06:09;11.65;;;7.05;;
70216;SDS011;65567;55.684;37.570;2023-09-30T08:08:35;12.70;;;6.53;;
70216;SDS011;65567;55.684;37.570;2023-09-30T08:11:01;10.98;;;6.82;;
70216;SDS011;65567;55.684;37.570;2023-09-30T08:13:27;14.23;;;6.35;;
70216;SDS011;65567;55.684;37.570;2023-09-30T08:15:54;12.55;;;6.85;;
70216;SDS011;65567;55.684;37.570;2023-09-30T08:18:20;12.68;;;6.70;;
70216;SDS011;65567;55.684;37.570;2023-09-30T08:20:46;12.60;;;6.82;;
70216;SDS011;65567;55.684;37.570;2023-09-30T08:23:12;8.52;;;5.47;;
70216;SDS011;65567;55.684;37.570;2023-09-30T08:25:38;15.52;;;6.50;;
70216;SDS011;65567;55.684;37.570;2023-09-30T08:28:04;9.68;;;6.28;;
70216;SDS011;65567;55.684;37.570;2023-09-30T08:30:30;11.25;;;6.43;;
70216;SDS011;65567;55.684;37.570;2023-09-30T08:32:58;11.13;;;6.57;;
70216;SDS011;65567;55.684;37.570;2023-09-30T08:35:24;8.45;;;6.20;;
70216;SDS011;65567;55.684;37.570;2023-09-30T08:37:50;13.70;;;5.93;;
70216;SDS011;65567;55.684;37.570;2023-09-30T08:40:22;10.30;;;6.35;;
70216;SDS011;65567;55.684;37.570;2023-09-30T08:42:51;10.52;;;6.35;;
70216;SDS011;65567;55.684;37.570;2023-09-30T08:45:18;11.93;;;6.40;;
70216;SDS011;65567;55.684;37.570;2023-09-30T08:47:44;14.05;;;6.50;;
70216;SDS011;65567;55.684;37.570;2023-09-30T08:50:11;12.27;;;5.68;;
70216;SDS011;65567;55.684;37.570;2023-09-30T08:52:42;9.02;;;5.68;;
70216;SDS011;65567;55.684;37.570;2023-09-30T08:55:09;13.77;;;6.22;;
70216;SDS011;65567;55.684;37.570;2023-09-30T08:57:41;10.80;;;6.22;;
70216;SDS011;65567;55.684;37.570;2023-09-30T09:00:08;9.50;;;6.28;;
70216;SDS011;65567;55.684;37.570;2023-09-30T09:02:41;8.93;;;5.45;;
70216;SDS011;65567;55.684;37.570;2023-09-30T09:05:07;12.17;;;5.67;;
70216;SDS011;65567;55.684;37.570;2023-09-30T09:07:34;10.07;;;5.75;;
70216;SDS011;65567;55.684;37.570;2023-09-30T09:10:07;10.52;;;5.30;;
70216;SDS011;65567;55.684;37.570;2023-09-30T09:12:40;12.57;;;6.25;;
70216;SDS011;65567;55.684;37.570;2023-09-30T09:15:07;9.43;;;5.47;;
70216;SDS011;65567;55.684;37.570;2023-09-30T09:17:45;11.02;;;5.75;;
70216;SDS011;65567;55.684;37.570;2023-09-30T09:20:11;11.48;;;5.55;;
70216;SDS011;65567;55.684;37.570;2023-09-30T09:22:45;17.95;;;6.35;;
70216;SDS011;65567;55.684;37.570;2023-09-30T09:25:11;8.32;;;5.68;;
70216;SDS011;65567;55.684;37.570;2023-09-30T09:27:37;8.93;;;6.00;;
70216;SDS011;65567;55.684;37.570;2023-09-30T09:30:19;11.73;;;5.70;;
70216;SDS011;65567;55.684;37.570;2023-09-30T09:32:51;10.95;;;5.97;;
70216;SDS011;65567;55.684;37.570;2023-09-30T09:35:23;8.75;;;5.72;;
70216;SDS011;65567;55.684;37.570;2023-09-30T09:38:03;9.32;;;5.65;;
70216;SDS011;65567;55.684;37.570;2023-09-30T09:40:31;11.23;;;6.00;;
70216;SDS011;65567;55.684;37.570;2023-09-30T09:43:03;12.18;;;5.70;;
70216;SDS011;65567;55.684;37.570;2023-09-30T09:45:32;7.32;;;5.45;;
70216;SDS011;65567;55.684;37.570;2023-09-30T09:48:02;9.55;;;5.82;;
70216;SDS011;65567;55.684;37.570;2023-09-30T09:50:29;10.68;;;6.22;;
70216;SDS011;65567;55.684;37.570;2023-09-30T09:52:58;13.75;;;5.82;;
70216;SDS011;65567;55.684;37.570;2023-09-30T09:55:24;7.78;;;5.78;;
70216;SDS011;65567;55.684;37.570;2023-09-30T09:57:52;7.57;;;5.60;;
70216;SDS011;65567;55.684;37.570;2023-09-30T10:02:49;9.35;;;5.90;;
70216;SDS011;65567;55.684;37.570;2023-09-30T10:05:15;9.50;;;5.30;;
70216;SDS011;65567;55.684;37.570;2023-09-30T10:07:47;11.85;;;6.47;;
70216;SDS011;65567;55.684;37.570;2023-09-30T10:10:36;11.18;;;6.10;;
70216;SDS011;65567;55.684;37.570;2023-09-30T10:13:05;8.38;;;5.97;;
70216;SDS011;65567;55.684;37.570;2023-09-30T10:20:37;11.48;;;5.53;;
70216;SDS011;65567;55.684;37.570;2023-09-30T10:23:19;8.57;;;5.25;;
70216;SDS011;65567;55.684;37.570;2023-09-30T10:25:53;10.25;;;5.90;;
70216;SDS011;65567;55.684;37.570;2023-09-30T10:31:15;9.70;;;6.75;;
70216;SDS011;65567;55.684;37.570;2023-09-30T10:36:38;13.63;;;6.93;;
70216;SDS011;65567;55.684;37.570;2023-09-30T10:39:10;8.90;;;6.22;;
70216;SDS011;65567;55.684;37.570;2023-09-30T10:46:50;10.88;;;6.18;;
70216;SDS011;65567;55.684;37.570;2023-09-30T10:51:52;8.82;;;6.30;;
70216;SDS011;65567;55.684;37.570;2023-09-30T10:54:23;11.82;;;6.30;;
70216;SDS011;65567;55.684;37.570;2023-09-30T10:56:53;15.40;;;6.22;;
70216;SDS011;65567;55.684;37.570;2023-09-30T10:59:21;9.07;;;6.68;;
70216;SDS011;65567;55.684;37.570;2023-09-30T11:01:49;10.57;;;5.60;;
70216;SDS011;65567;55.684;37.570;2023-09-30T11:04:15;13.63;;;6.53;;
70216;SDS011;65567;55.684;37.570;2023-09-30T11:06:42;8.65;;;6.45;;
70216;SDS011;65567;55.684;37.570;2023-09-30T11:09:08;11.07;;;5.38;;
70216;SDS011;65567;55.684;37.570;2023-09-30T11:11:38;12.02;;;7.25;;
70216;SDS011;65567;55.684;37.570;2023-09-30T11:14:28;9.40;;;5.97;;
70216;SDS011;65567;55.684;37.570;2023-09-30T11:16:57;9.00;;;6.70;;
70216;SDS011;65567;55.684;37.570;2023-09-30T11:19:24;12.48;;;6.63;;
70216;SDS011;65567;55.684;37.570;2023-09-30T11:21:52;9.05;;;6.70;;
70216;SDS011;65567;55.684;37.570;2023-09-30T11:24:23;7.30;;;4.45;;
70216;SDS011;65567;55.684;37.570;2023-09-30T11:26:53;9.07;;;6.38;;
70216;SDS011;65567;55.684;37.570;2023-09-30T11:29:20;9.93;;;6.53;;
70216;SDS011;65567;55.684;37.570;2023-09-30T11:31:50;13.52;;;7.55;;
70216;SDS011;65567;55.684;37.570;2023-09-30T11:34:18;13.10;;;6.40;;
70216;SDS011;65567;55.684;37.570;2023-09-30T11:36:52;11.57;;;6.50;;
70216;SDS011;65567;55.684;37.570;2023-09-30T11:39:25;14.85;;;6.72;;
70216;SDS011;65567;55.684;37.570;2023-09-30T11:41:53;9.63;;;6.57;;
70216;SDS011;65567;55.684;37.570;2023-09-30T11:44:20;12.07;;;6.88;;
70216;SDS011;65567;55.684;37.570;2023-09-30T11:46:56;10.70;;;5.03;;
70216;SDS011;65567;55.684;37.570;2023-09-30T11:52:00;8.15;;;3.85;;
70216;SDS011;65567;55.684;37.570;2023-09-30T11:54:33;13.07;;;6.65;;
70216;SDS011;65567;55.684;37.570;2023-09-30T11:57:06;11.23;;;6.75;;
70216;SDS011;65567;55.684;37.570;2023-09-30T11:59:35;17.27;;;6.35;;
70216;SDS011;65567;55.684;37.570;2023-09-30T12:02:02;8.73;;;6.32;;
70216;SDS011;65567;55.684;37.570;2023-09-30T12:04:28;11.73;;;6.25;;
70216;SDS011;65567;55.684;37.570;2023-09-30T12:06:54;13.57;;;6.50;;
70216;SDS011;65567;55.684;37.570;2023-09-30T12:09:22;14.60;;;6.55;;
70216;SDS011;65567;55.684;37.570;2023-09-30T12:11:51;9.35;;;7.20;;
70216;SDS011;65567;55.684;37.570;2023-09-30T12:14:22;11.05;;;7.35;;
70216;SDS011;65567;55.684;37.570;2023-09-30T12:16:49;12.77;;;6.78;;
70216;SDS011;65567;55.684;37.570;2023-09-30T12:19:18;12.90;;;6.50;;
70216;SDS011;65567;55.684;37.570;2023-09-30T12:21:44;9.23;;;6.90;;
70216;SDS011;65567;55.684;37.570;2023-09-30T12:24:13;10.03;;;5.80;;
70216;SDS011;65567;55.684;37.570;2023-09-30T12:26:44;9.48;;;6.13;;
70216;SDS011;65567;55.684;37.570;2023-09-30T12:29:13;11.93;;;6.13;;
70216;SDS011;65567;55.684;37.570;2023-09-30T12:31:45;11.98;;;6.88;;
70216;SDS011;65567;55.684;37.570;2023-09-30T12:34:14;10.30;;;6.25;;
70216;SDS011;65567;55.684;37.570;2023-09-30T12:36:41;8.15;;;6.13;;
70216;SDS011;65567;55.684;37.570;2023-09-30T12:39:07;12.15;;;6.05;;
70216;SDS011;65567;55.684;37.570;2023-09-30T12:41:37;11.65;;;6.05;;
70216;SDS011;65567;55.684;37.570;2023-09-30T12:44:03;12.32;;;6.47;;
70216;SDS011;65567;55.684;37.570;2023-09-30T12:46:29;10.77;;;6.63;;
70216;SDS011;65567;55.684;37.570;2023-09-30T12:48:56;10.43;;;6.20;;
70216;SDS011;65567;55.684;37.570;2023-09-30T12:51:22;11.98;;;6.80;;
70216;SDS011;65567;55.684;37.570;2023-09-30T12:53:48;8.60;;;6.78;;
70216;SDS011;65567;55.684;37.570;2023-09-30T12:56:14;11.27;;;6.50;;
70216;SDS011;65567;55.684;37.570;2023-09-30T12:58:40;10.57;;;6.88;;
70216;SDS011;65567;55.684;37.570;2023-09-30T13:01:09;11.65;;;6.93;;
70216;SDS011;65567;55.684;37.570;2023-09-30T13:03:35;10.50;;;6.38;;
70216;SDS011;65567;55.684;37.570;2023-09-30T13:06:01;12.43;;;6.57;;
70216;SDS011;65567;55.684;37.570;2023-09-30T13:08:26;8.57;;;6.38;;
70216;SDS011;65567;55.684;37.570;2023-09-30T13:10:52;10.07;;;7.32;;
70216;SDS011;65567;55.684;37.570;2023-09-30T13:13:17;10.73;;;6.13;;
70216;SDS011;65567;55.684;37.570;2023-09-30T13:15:43;10.68;;;6.88;;
70216;SDS011;65567;55.684;37.570;2023-09-30T13:18:09;10.00;;;6.60;;
70216;SDS011;65567;55.684;37.570;2023-09-30T13:20:35;11.68;;;6.95;;
70216;SDS011;65567;55.684;37.570;2023-09-30T13:23:01;10.57;;;6.28;;
70216;SDS011;65567;55.684;37.570;2023-09-30T13:25:28;9.85;;;6.75;;
70216;SDS011;65567;55.684;37.570;2023-09-30T13:27:54;9.30;;;5.45;;
70216;SDS011;65567;55.684;37.570;2023-09-30T13:30:19;10.23;;;6.38;;
70216;SDS011;65567;55.684;37.570;2023-09-30T13:32:46;11.02;;;6.35;;
70216;SDS011;65567;55.684;37.570;2023-09-30T13:35:11;11.52;;;6.82;;
70216;SDS011;65567;55.684;37.570;2023-09-30T13:37:37;15.27;;;6.95;;
70216;SDS011;65567;55.684;37.570;2023-09-30T13:40:03;13.68;;;6.93;;
70216;SDS011;65567;55.684;37.570;2023-09-30T13:42:29;14.80;;;6.15;;
70216;SDS011;65567;55.684;37.570;2023-09-30T13:44:56;11.80;;;6.43;;
70216;SDS011;65567;55.684;37.570;2023-09-30T13:47:25;12.20;;;7.15;;
70216;SDS011;65567;55.684;37.570;2023-09-30T13:49:51;11.70;;;7.72;;
70216;SDS011;65567;55.684;37.570;2023-09-30T13:52:18;13.20;;;7.35;;
70216;SDS011;65567;55.684;37.570;2023-09-30T13:54:43;12.68;;;6.80;;
70216;SDS011;65567;55.684;37.570;2023-09-30T13:57:09;10.10;;;7.07;;
70216;SDS011;65567;55.684;37.570;2023-09-30T13:59:35;12.75;;;7.47;;
70216;SDS011;65567;55.684;37.570;2023-09-30T14:02:01;13.50;;;7.55;;
70216;SDS011;65567;55.684;37.570;2023-09-30T14:04:29;13.35;;;6.60;;
70216;SDS011;65567;55.684;37.570;2023-09-30T14:06:57;15.88;;;9.80;;
70216;SDS011;65567;55.684;37.570;2023-09-30T14:09:26;12.88;;;6.82;;
70216;SDS011;65567;55.684;37.570;2023-09-30T14:11:53;13.23;;;6.72;;
70216;SDS011;65567;55.684;37.570;2023-09-30T14:14:19;11.93;;;7.30;;
70216;SDS011;65567;55.684;37.570;2023-09-30T14:16:45;14.63;;;7.15;;
70216;SDS011;65567;55.684;37.570;2023-09-30T14:19:12;10.30;;;7.15;;
70216;SDS011;65567;55.684;37.570;2023-09-30T14:21:39;13.20;;;7.40;;
70216;SDS011;65567;55.684;37.570;2023-09-30T14:24:11;13.10;;;7.05;;
70216;SDS011;65567;55.684;37.570;2023-09-30T14:26:36;13.43;;;7.15;;
70216;SDS011;65567;55.684;37.570;2023-09-30T14:29:03;13.80;;;6.93;;
70216;SDS011;65567;55.684;37.570;2023-09-30T14:31:28;14.63;;;7.55;;
70216;SDS011;65567;55.684;37.570;2023-09-30T14:33:54;12.73;;;6.40;;
70216;SDS011;65567;55.684;37.570;2023-09-30T14:36:20;10.15;;;6.78;;
70216;SDS011;65567;55.684;37.570;2023-09-30T14:38:48;9.38;;;6.70;;
70216;SDS011;65567;55.684;37.570;2023-09-30T14:41:14;11.95;;;7.13;;
70216;SDS011;65567;55.684;37.570;2023-09-30T14:43:41;10.43;;;7.63;;
70216;SDS011;65567;55.684;37.570;2023-09-30T14:46:07;16.83;;;6.90;;
70216;SDS011;65567;55.684;37.570;2023-09-30T14:48:35;12.63;;;7.30;;
70216;SDS011;65567;55.684;37.570;2023-09-30T14:51:02;11.55;;;7.43;;